N722CP KGSO-KCLT
Flight info
| Callsign | N722CP |
|---|---|
| Flight time | N/A |
| Altitude | 8500 |
| Route | GSO CLT |
| Aircraft | BE9L/L-V/N |
Departure
| Time | 2026-05-04 15:56 |
|---|---|
| Airport | Piedmont Triad International Airport (KGSO) |
Arrival
| Time | N/A |
|---|---|
| Airport | Charlotte Douglas International Airport (KCLT) |
| Time | Latitude | Longitude | Altitude | Speed | Heading |
|---|---|---|---|---|---|
| 2026-05-04 15:41 | 36.08954 | -79.94304 | 888 ft | 0 kts | 311° |
| 2026-05-04 15:48 | 36.08962 | -79.94315 | 888 ft | 1 kts | 311° |
| 2026-05-04 15:49 | 36.08963 | -79.94317 | 888 ft | 0 kts | 310° |
| 2026-05-04 15:49 | 36.08966 | -79.94320 | 888 ft | 0 kts | 313° |
| 2026-05-04 15:49 | 36.08970 | -79.94325 | 888 ft | 1 kts | 324° |
| 2026-05-04 15:49 | 36.08986 | -79.94326 | 888 ft | 3 kts | 25° |
| 2026-05-04 15:50 | 36.09016 | -79.94287 | 889 ft | 10 kts | 46° |
| 2026-05-04 15:50 | 36.09081 | -79.94204 | 890 ft | 16 kts | 44° |
| 2026-05-04 15:50 | 36.09169 | -79.94091 | 891 ft | 20 kts | 45° |
| 2026-05-04 15:50 | 36.09272 | -79.93997 | 891 ft | 14 kts | 27° |
| 2026-05-04 15:51 | 36.09366 | -79.93892 | 888 ft | 23 kts | 43° |
| 2026-05-04 15:51 | 36.09499 | -79.93739 | 885 ft | 28 kts | 43° |
| 2026-05-04 15:51 | 36.09653 | -79.93564 | 881 ft | 30 kts | 43° |
| 2026-05-04 15:51 | 36.09802 | -79.93392 | 877 ft | 27 kts | 44° |
| 2026-05-04 15:52 | 36.09930 | -79.93230 | 877 ft | 25 kts | 46° |
| 2026-05-04 15:52 | 36.10045 | -79.93082 | 878 ft | 23 kts | 44° |
| 2026-05-04 15:52 | 36.10149 | -79.92937 | 877 ft | 22 kts | 52° |
| 2026-05-04 15:52 | 36.10250 | -79.92793 | 879 ft | 23 kts | 45° |
| 2026-05-04 15:53 | 36.10335 | -79.92623 | 878 ft | 23 kts | 61° |
| 2026-05-04 15:53 | 36.10450 | -79.92459 | 875 ft | 28 kts | 46° |
| 2026-05-04 15:53 | 36.10603 | -79.92264 | 873 ft | 33 kts | 45° |
| 2026-05-04 15:53 | 36.10755 | -79.92067 | 874 ft | 30 kts | 46° |
| 2026-05-04 15:54 | 36.10873 | -79.91922 | 875 ft | 7 kts | 28° |
| 2026-05-04 15:54 | 36.10920 | -79.91939 | 876 ft | 7 kts | 322° |
| 2026-05-04 15:54 | 36.10946 | -79.91969 | 877 ft | 0 kts | 312° |
| 2026-05-04 15:54 | 36.10976 | -79.92011 | 878 ft | 12 kts | 310° |
| 2026-05-04 15:55 | 36.10938 | -79.92129 | 878 ft | 26 kts | 227° |
| 2026-05-04 15:55 | 36.10636 | -79.92515 | 879 ft | 92 kts | 225° |
| 2026-05-04 15:55 | 36.10096 | -79.93203 | 907 ft | 124 kts | 226° |
| 2026-05-04 15:55 | 36.09475 | -79.94003 | 1082 ft | 136 kts | 226° |
| 2026-05-04 15:56 | 36.08786 | -79.94889 | 1291 ft | 149 kts | 226° |
| 2026-05-04 15:56 | 36.08055 | -79.95839 | 1539 ft | 157 kts | 227° |
| 2026-05-04 15:56 | 36.07370 | -79.96925 | 1771 ft | 162 kts | 239° |
| 2026-05-04 15:56 | 36.06840 | -79.98113 | 2108 ft | 161 kts | 245° |
| 2026-05-04 15:57 | 36.06360 | -79.99454 | 2183 ft | 174 kts | 249° |
| 2026-05-04 15:57 | 36.05889 | -80.00817 | 2426 ft | 173 kts | 243° |
| 2026-05-04 15:57 | 36.05234 | -80.02061 | 2629 ft | 175 kts | 233° |
| 2026-05-04 15:57 | 36.04447 | -80.03236 | 2856 ft | 176 kts | 230° |
| 2026-05-04 15:58 | 36.03577 | -80.04296 | 3064 ft | 177 kts | 227° |
| 2026-05-04 15:58 | 36.02906 | -80.05552 | 3256 ft | 176 kts | 250° |
| 2026-05-04 15:58 | 36.02579 | -80.07008 | 3433 ft | 176 kts | 260° |
| 2026-05-04 15:58 | 36.02373 | -80.08456 | 3710 ft | 171 kts | 264° |
| 2026-05-04 15:59 | 36.02234 | -80.09923 | 3860 ft | 175 kts | 264° |
| 2026-05-04 15:59 | 36.01971 | -80.11408 | 4056 ft | 175 kts | 255° |
| 2026-05-04 15:59 | 36.01532 | -80.12800 | 4281 ft | 174 kts | 251° |
| 2026-05-04 15:59 | 36.01149 | -80.14224 | 4430 ft | 176 kts | 255° |
| 2026-05-04 16:00 | 36.00774 | -80.15683 | 4580 ft | 177 kts | 257° |
| 2026-05-04 16:00 | 36.00460 | -80.17152 | 4735 ft | 178 kts | 258° |
| 2026-05-04 16:00 | 36.00143 | -80.18631 | 4892 ft | 178 kts | 259° |
| 2026-05-04 16:00 | 35.99864 | -80.20126 | 5052 ft | 178 kts | 260° |
| 2026-05-04 16:01 | 35.99589 | -80.21600 | 5209 ft | 177 kts | 260° |
| 2026-05-04 16:01 | 35.99309 | -80.23095 | 5367 ft | 177 kts | 260° |
| 2026-05-04 16:01 | 35.99033 | -80.24557 | 5518 ft | 176 kts | 260° |
| 2026-05-04 16:01 | 35.98755 | -80.26027 | 5668 ft | 175 kts | 260° |
| 2026-05-04 16:02 | 35.98480 | -80.27482 | 5814 ft | 174 kts | 262° |
| 2026-05-04 16:02 | 35.98267 | -80.28945 | 5957 ft | 173 kts | 263° |
| 2026-05-04 16:02 | 35.97844 | -80.31862 | 6241 ft | 172 kts | 263° |
| 2026-05-04 16:03 | 35.97633 | -80.33316 | 6381 ft | 171 kts | 263° |
| 2026-05-04 16:03 | 35.97425 | -80.34747 | 6518 ft | 171 kts | 263° |
| 2026-05-04 16:03 | 35.97215 | -80.36186 | 6655 ft | 170 kts | 263° |
| 2026-05-04 16:03 | 35.97007 | -80.37624 | 6791 ft | 170 kts | 263° |
| 2026-05-04 16:04 | 35.96797 | -80.39071 | 6926 ft | 169 kts | 263° |
| 2026-05-04 16:04 | 35.96015 | -80.41803 | 7184 ft | 171 kts | 250° |
| 2026-05-04 16:04 | 35.95557 | -80.43150 | 7317 ft | 169 kts | 251° |
| 2026-05-04 16:05 | 35.95110 | -80.44485 | 7447 ft | 168 kts | 251° |
| 2026-05-04 16:05 | 35.94666 | -80.45823 | 7579 ft | 168 kts | 251° |
| 2026-05-04 16:05 | 35.93906 | -80.48536 | 7841 ft | 166 kts | 255° |
| 2026-05-04 16:06 | 35.93545 | -80.49887 | 7970 ft | 165 kts | 255° |
| 2026-05-04 16:06 | 35.92613 | -80.53468 | 8307 ft | 163 kts | 255° |
| 2026-05-04 16:07 | 35.92166 | -80.55241 | 8470 ft | 162 kts | 255° |
| 2026-05-04 16:07 | 35.91159 | -80.59401 | 8494 ft | 175 kts | 255° |
| 2026-05-04 16:08 | 35.90816 | -80.60867 | 8493 ft | 177 kts | 255° |
| 2026-05-04 16:08 | 35.89807 | -80.65334 | 8494 ft | 181 kts | 254° |
| 2026-05-04 16:09 | 35.89133 | -80.68347 | 8499 ft | 183 kts | 254° |
| 2026-05-04 16:09 | 35.87481 | -80.70417 | 8497 ft | 197 kts | 186° |
| 2026-05-04 16:10 | 35.84758 | -80.70403 | 8500 ft | 197 kts | 187° |
| 2026-05-04 16:11 | 35.80639 | -80.70633 | 8500 ft | 197 kts | 188° |
| 2026-05-04 16:11 | 35.79265 | -80.70713 | 8497 ft | 198 kts | 188° |